Weather at Brandon Municipal Airport

Public forecast

Using degrees Celsius for public forecast. Weather courtesy of forecast.io.

Current aviation weather report (METAR) for Brandon Municipal Airport

2024/05/25 11:00 (retrieved 29 minutes ago)

CYBR 251100Z 30012KT 12SM -RA FEW008 OVC050 02/02 A2959 RMK SF1SC7 SLP041

Aviation forecast (TAF) for Brandon Municipal Airport

2024/05/25 06:42 (retrieved 5 hours ago)

TAF CYBR 250540Z 2506/2518 32015G25KT P6SM -SNRA OVC025 TEMPO 2506/2512 3SM -SNRA BR BKN008 OVC025 FM251200 32012G22KT P6SM -RA OVC025 TEMPO 2512/2516 4SM -RA BR BKN008 OVC025 FM251600 32012KT P6SM BKN025 BKN060 TEMPO 2516/2518 P6SM -RA BKN015 BKN060 RMK NXT FCST BY 251200Z